Time;durP1;ratioP1;P1;durP2;ratioP2;P2;SDS_P1;SDS_P2;PMS_P1;PMS_P2;Temp;Humidity;BMP_temperature;BMP_pressure;BME280_temperature;BME280_humidity;BME280_pressure;Samples;Min_cycle;Max_cycle;Signal;HPM_P1;HPM_P2
2023/06/26 00:01:50;;;;;;;7.57;5.72;;;22.90;98.80;;;;;;5093516;28;20019;-52
2023/06/26 00:04:15;;;;;;;6.65;5.15;;;22.80;99.20;;;;;;5111179;28;20051;-56
2023/06/26 00:06:41;;;;;;;8.65;6.03;;;22.80;99.40;;;;;;5111583;28;20555;-53
2023/06/26 00:09:07;;;;;;;8.15;5.70;;;22.80;99.60;;;;;;5111802;28;20034;-55
2023/06/26 00:11:33;;;;;;;10.88;6.25;;;22.80;99.80;;;;;;5111879;28;20407;-51
2023/06/26 00:14:00;;;;;;;10.75;6.35;;;22.80;99.90;;;;;;5093027;28;20024;-55
2023/06/26 00:16:26;;;;;;;8.55;5.45;;;22.70;99.90;;;;;;5114770;28;20034;-56
2023/06/26 00:18:52;;;;;;;8.07;6.10;;;22.60;99.90;;;;;;5115321;28;20034;-56
2023/06/26 00:21:19;;;;;;;7.22;5.82;;;22.60;99.90;;;;;;5115462;28;20035;-53
2023/06/26 00:23:44;;;;;;;8.82;6.03;;;22.50;99.90;;;;;;5115080;28;20023;-55
2023/06/26 00:26:10;;;;;;;6.25;5.40;;;22.50;99.90;;;;;;5114990;28;20027;-51
2023/06/26 00:28:36;;;;;;;9.40;6.10;;;22.50;99.90;;;;;;5113000;28;20486;-53
2023/06/26 00:31:01;;;;;;;6.93;6.22;;;22.50;99.90;;;;;;5115283;28;20078;-56
2023/06/26 00:33:27;;;;;;;7.47;6.03;;;22.40;99.90;;;;;;5114901;28;20050;-55
2023/06/26 00:35:52;;;;;;;7.15;5.80;;;22.40;99.90;;;;;;5114938;28;20032;-55
2023/06/26 00:38:18;;;;;;;7.00;6.03;;;22.30;99.90;;;;;;5097036;28;20028;-54
2023/06/26 00:40:43;;;;;;;9.85;6.25;;;22.20;99.90;;;;;;5096734;28;20055;-53
2023/06/26 00:43:09;;;;;;;12.95;6.03;;;22.20;99.90;;;;;;5114962;28;20399;-55
2023/06/26 00:45:34;;;;;;;7.97;6.43;;;22.10;99.90;;;;;;5096430;28;20019;-56
2023/06/26 00:48:01;;;;;;;7.60;6.38;;;22.00;99.90;;;;;;5096727;28;20028;-55
2023/06/26 00:50:27;;;;;;;9.55;6.40;;;21.90;99.90;;;;;;5096847;28;20057;-55
2023/06/26 00:52:54;;;;;;;10.90;6.45;;;21.90;99.90;;;;;;5115216;28;20023;-51
2023/06/26 00:55:20;;;;;;;8.85;6.38;;;21.80;99.90;;;;;;5114315;28;20020;-54
2023/06/26 00:57:46;;;;;;;8.07;6.30;;;21.80;99.90;;;;;;5096770;28;20038;-56
2023/06/26 01:00:12;;;;;;;6.82;6.13;;;21.70;99.90;;;;;;5113783;28;20061;-53
2023/06/26 01:02:38;;;;;;;15.23;6.07;;;21.70;99.90;;;;;;5114910;28;20030;-56
2023/06/26 01:05:06;;;;;;;8.18;6.78;;;21.70;99.90;;;;;;5095654;28;20016;-56
2023/06/26 01:07:35;;;;;;;7.00;6.38;;;21.70;99.90;;;;;;5114760;28;20440;-55
2023/06/26 01:10:03;;;;;;;7.47;6.60;;;21.70;99.90;;;;;;5096164;28;20487;-54
2023/06/26 01:12:28;;;;;;;12.98;6.60;;;21.70;99.90;;;;;;5114527;28;20053;-53
2023/06/26 01:14:54;;;;;;;10.80;6.65;;;21.70;99.90;;;;;;5113973;28;20023;-56
2023/06/26 01:17:20;;;;;;;7.75;6.80;;;21.70;99.90;;;;;;5096178;28;20027;-57
2023/06/26 01:19:46;;;;;;;10.90;6.38;;;21.70;99.90;;;;;;5114400;28;20031;-54
2023/06/26 01:22:44;;;;;;;12.00;6.10;;;21.70;99.90;;;;;;5114634;28;20016;-56
2023/06/26 01:25:38;;;;;;;7.93;6.45;;;21.70;99.90;;;;;;5113937;28;20062;-54
2023/06/26 01:28:05;;;;;;;9.60;5.97;;;21.70;99.90;;;;;;5094503;28;20103;-57
2023/06/26 01:30:32;;;;;;;9.48;6.38;;;21.70;99.90;;;;;;5095974;28;20023;-52
2023/06/26 01:32:59;;;;;;;12.50;7.03;;;21.70;99.90;;;;;;5113032;28;20118;-53
2023/06/26 01:35:25;;;;;;;6.80;6.03;;;21.60;99.90;;;;;;5113303;28;20024;-54
2023/06/26 01:37:51;;;;;;;7.65;6.68;;;21.60;99.90;;;;;;5114060;28;20035;-56
2023/06/26 01:40:16;;;;;;;7.35;6.57;;;21.50;99.90;;;;;;5113652;28;20031;-56
2023/06/26 01:42:42;;;;;;;7.07;6.20;;;21.50;99.90;;;;;;5113785;28;20455;-54
2023/06/26 01:45:21;;;;;;;11.52;7.05;;;21.40;99.90;;;;;;5113149;28;20479;-54
2023/06/26 01:47:52;;;;;;;9.50;6.85;;;21.40;99.90;;;;;;5113833;28;20058;-57
2023/06/26 01:50:24;;;;;;;8.65;7.57;;;21.30;99.90;;;;;;5095530;28;20031;-57
2023/06/26 01:52:59;;;;;;;8.13;7.18;;;21.30;99.90;;;;;;5113668;28;20437;-54
2023/06/26 01:55:47;;;;;;;7.05;5.93;;;21.30;99.90;;;;;;5112966;28;20051;-56
2023/06/26 01:58:16;;;;;;;8.93;7.03;;;21.30;99.90;;;;;;5113866;28;20027;-53
2023/06/26 02:00:42;;;;;;;12.57;6.80;;;21.20;99.90;;;;;;5113373;28;20487;-56
2023/06/26 02:03:08;;;;;;;7.35;6.57;;;21.30;99.90;;;;;;5113498;28;20034;-54
2023/06/26 02:05:33;;;;;;;8.40;5.70;;;21.30;99.90;;;;;;5111408;28;20475;-51
2023/06/26 02:08:01;;;;;;;9.38;6.22;;;21.30;99.90;;;;;;5095108;28;20046;-57
2023/06/26 02:10:26;;;;;;;7.68;6.93;;;21.30;99.90;;;;;;5113326;28;20548;-55
2023/06/26 02:12:52;;;;;;;11.60;7.10;;;21.30;99.90;;;;;;5113312;28;20028;-52
2023/06/26 02:15:17;;;;;;;9.07;6.25;;;21.20;99.90;;;;;;5112372;28;20035;-54
2023/06/26 02:17:47;;;;;;;10.85;6.47;;;21.20;99.90;;;;;;5094857;28;20439;-57
2023/06/26 02:20:13;;;;;;;6.88;5.97;;;21.20;99.90;;;;;;5094838;28;20019;-54
2023/06/26 02:22:39;;;;;;;10.23;6.65;;;21.10;99.90;;;;;;5113036;28;20438;-55
2023/06/26 02:25:05;;;;;;;8.00;6.72;;;21.00;99.90;;;;;;5112149;28;20037;-52
2023/06/26 02:27:30;;;;;;;8.70;6.78;;;21.00;99.90;;;;;;5112018;28;20431;-55
2023/06/26 02:29:56;;;;;;;9.45;6.22;;;21.00;99.90;;;;;;5112865;28;20103;-49
2023/06/26 02:32:22;;;;;;;7.97;6.35;;;20.90;99.90;;;;;;5112857;28;20020;-56
2023/06/26 02:34:47;;;;;;;8.90;6.88;;;20.90;99.90;;;;;;5112016;28;20027;-55
2023/06/26 02:37:13;;;;;;;8.30;6.82;;;20.80;99.90;;;;;;5112851;28;20034;-53
2023/06/26 02:39:38;;;;;;;8.02;6.70;;;20.80;99.90;;;;;;5110351;28;20031;-52
2023/06/26 02:42:04;;;;;;;9.32;6.88;;;20.80;99.90;;;;;;5112619;28;20103;-51
2023/06/26 02:44:29;;;;;;;8.05;6.80;;;20.80;99.90;;;;;;5112078;28;20028;-53
2023/06/26 02:46:55;;;;;;;9.40;7.03;;;20.70;99.90;;;;;;5112346;28;20559;-51
2023/06/26 02:49:20;;;;;;;7.72;6.80;;;20.60;99.90;;;;;;5112649;28;20024;-54
2023/06/26 02:51:46;;;;;;;7.80;7.00;;;20.60;99.90;;;;;;5112641;28;20523;-50
2023/06/26 02:54:11;;;;;;;8.20;7.40;;;20.50;99.90;;;;;;5112075;28;20072;-54
2023/06/26 02:56:37;;;;;;;8.05;6.80;;;20.50;99.90;;;;;;5112093;28;20020;-55
2023/06/26 02:59:02;;;;;;;8.35;6.90;;;20.50;99.90;;;;;;5112452;28;20525;-56
2023/06/26 03:01:28;;;;;;;11.80;7.22;;;20.40;99.90;;;;;;5112398;28;20020;-50
2023/06/26 03:03:54;;;;;;;9.40;6.97;;;20.40;99.90;;;;;;5111971;28;20042;-52
2023/06/26 03:06:19;;;;;;;10.98;7.30;;;20.30;99.90;;;;;;5111772;28;20031;-54
2023/06/26 03:08:45;;;;;;;7.03;6.32;;;20.30;99.90;;;;;;5111401;28;20503;-56
2023/06/26 03:11:10;;;;;;;11.13;7.32;;;20.30;99.90;;;;;;5112288;28;20023;-51
2023/06/26 03:13:36;;;;;;;8.65;7.47;;;20.30;99.90;;;;;;5111860;28;20391;-52
2023/06/26 03:16:03;;;;;;;8.50;7.18;;;20.30;99.90;;;;;;5111822;28;20027;-55
2023/06/26 03:18:28;;;;;;;8.95;6.43;;;20.20;99.90;;;;;;5111973;28;20068;-53
2023/06/26 03:20:55;;;;;;;11.70;7.30;;;20.20;99.90;;;;;;5094451;28;20114;-51
2023/06/26 03:23:22;;;;;;;13.75;8.65;;;20.20;99.90;;;;;;5112364;28;20023;-53
2023/06/26 03:25:48;;;;;;;9.32;7.57;;;20.10;99.90;;;;;;5093158;28;20027;-57
2023/06/26 03:28:14;;;;;;;11.60;6.68;;;20.00;99.90;;;;;;5111289;28;20030;-52
2023/06/26 03:30:39;;;;;;;9.50;6.80;;;20.00;99.90;;;;;;5093622;28;20019;-55
2023/06/26 03:33:05;;;;;;;9.23;7.18;;;20.00;99.90;;;;;;5111910;28;20071;-52
2023/06/26 03:35:31;;;;;;;8.40;6.95;;;20.00;99.90;;;;;;5111199;28;20508;-54
2023/06/26 03:37:57;;;;;;;7.40;6.65;;;20.00;99.90;;;;;;5111931;28;20530;-53
2023/06/26 03:40:23;;;;;;;12.57;6.88;;;20.00;99.90;;;;;;5111748;28;20088;-54
2023/06/26 03:42:48;;;;;;;10.02;7.43;;;20.00;99.90;;;;;;5110886;28;20475;-57
2023/06/26 03:45:14;;;;;;;9.93;6.70;;;20.00;99.90;;;;;;5111511;28;20024;-54
2023/06/26 03:47:39;;;;;;;7.40;6.70;;;20.00;99.90;;;;;;5111835;28;20495;-54
2023/06/26 03:50:05;;;;;;;10.57;7.25;;;20.00;99.90;;;;;;5113031;28;20023;-55
2023/06/26 03:52:31;;;;;;;10.00;7.90;;;20.00;99.90;;;;;;5115956;28;20019;-54
2023/06/26 03:54:59;;;;;;;11.75;7.30;;;20.00;99.90;;;;;;5115140;28;20023;-55
2023/06/26 03:57:25;;;;;;;7.95;6.90;;;20.00;99.90;;;;;;5097749;28;20395;-56
2023/06/26 03:59:51;;;;;;;8.10;7.30;;;20.00;99.90;;;;;;5115721;28;20034;-55
2023/06/26 04:02:17;;;;;;;9.50;6.68;;;20.10;99.90;;;;;;5115785;28;20084;-55
2023/06/26 04:04:43;;;;;;;8.38;7.43;;;20.10;99.90;;;;;;5114991;28;20097;-52
2023/06/26 04:07:08;;;;;;;13.75;8.52;;;20.10;99.90;;;;;;5115631;28;20031;-55
2023/06/26 04:09:34;;;;;;;9.13;8.20;;;20.20;99.90;;;;;;5115487;28;20449;-56
2023/06/26 04:11:59;;;;;;;9.57;7.20;;;20.10;99.90;;;;;;5115568;28;20024;-52
2023/06/26 04:14:25;;;;;;;8.30;6.95;;;20.20;99.90;;;;;;5114026;28;20395;-56
2023/06/26 04:16:50;;;;;;;11.00;6.78;;;20.20;99.90;;;;;;5115192;28;20492;-55
2023/06/26 04:19:16;;;;;;;7.85;6.80;;;20.20;99.90;;;;;;5115320;28;20058;-55
2023/06/26 04:21:41;;;;;;;11.32;7.80;;;20.20;99.90;;;;;;5115375;28;20027;-54
2023/06/26 04:24:07;;;;;;;10.00;6.57;;;20.10;99.90;;;;;;5115071;28;20027;-56
2023/06/26 04:26:33;;;;;;;15.13;8.23;;;20.10;99.90;;;;;;5096579;28;20435;-56
2023/06/26 04:28:59;;;;;;;16.00;7.90;;;20.20;99.90;;;;;;5096204;28;20479;-54
2023/06/26 04:31:24;;;;;;;8.52;7.63;;;20.30;99.90;;;;;;5115119;28;20471;-55
2023/06/26 04:33:50;;;;;;;7.43;6.72;;;20.50;99.90;;;;;;5114828;28;20038;-54
2023/06/26 04:36:17;;;;;;;14.30;7.00;;;20.50;99.90;;;;;;5114718;28;20026;-55
2023/06/26 04:38:42;;;;;;;8.38;7.53;;;20.60;99.90;;;;;;5115115;28;20027;-54
2023/06/26 04:41:08;;;;;;;11.43;8.27;;;20.70;99.90;;;;;;5096641;28;20425;-55
2023/06/26 04:43:33;;;;;;;9.57;7.57;;;20.80;99.90;;;;;;5096287;28;20024;-50
2023/06/26 04:45:59;;;;;;;12.32;7.88;;;20.90;99.90;;;;;;5114474;28;20090;-56
2023/06/26 04:48:27;;;;;;;8.80;7.35;;;21.00;99.90;;;;;;5113787;28;20402;-55
2023/06/26 04:50:53;;;;;;;11.35;7.93;;;21.20;99.90;;;;;;5096692;28;20221;-51
2023/06/26 04:53:19;;;;;;;8.02;6.38;;;21.40;99.90;;;;;;5114845;28;20380;-54
2023/06/26 04:55:45;;;;;;;8.70;6.68;;;21.50;99.90;;;;;;5095984;28;20502;-55
2023/06/26 04:58:10;;;;;;;6.93;5.93;;;21.80;99.90;;;;;;5114767;28;20028;-52
2023/06/26 05:00:36;;;;;;;7.95;6.32;;;22.60;99.90;;;;;;5114539;28;20034;-55
2023/06/26 05:03:02;;;;;;;8.98;6.65;;;23.50;99.90;;;;;;5113703;28;20467;-52
2023/06/26 05:05:28;;;;;;;10.25;6.63;;;24.60;99.90;;;;;;5095970;28;20402;-57
2023/06/26 05:07:55;;;;;;;7.60;6.72;;;25.60;99.90;;;;;;5114618;28;20027;-55
2023/06/26 05:10:20;;;;;;;10.70;8.57;;;26.50;98.90;;;;;;5114390;28;20107;-55
2023/06/26 05:12:46;;;;;;;13.43;6.97;;;27.50;97.10;;;;;;5114391;28;20106;-53
2023/06/26 05:15:11;;;;;;;6.93;5.95;;;28.10;95.50;;;;;;5113583;28;20031;-56
2023/06/26 05:17:37;;;;;;;6.88;6.18;;;28.50;94.00;;;;;;5114168;28;20051;-54
2023/06/26 05:20:03;;;;;;;9.32;5.65;;;28.80;93.40;;;;;;5113072;28;20077;-53
2023/06/26 05:22:29;;;;;;;8.98;6.18;;;29.10;93.00;;;;;;5114171;28;20019;-53
2023/06/26 05:24:59;;;;;;;7.15;5.95;;;29.70;92.20;;;;;;5113394;28;20027;-48
2023/06/26 05:27:24;;;;;;;7.65;6.32;;;30.20;91.40;;;;;;5112993;28;20031;-49
2023/06/26 05:29:50;;;;;;;8.50;6.50;;;30.50;90.50;;;;;;5095696;28;20031;-53
2023/06/26 05:32:19;;;;;;;9.70;6.47;;;30.80;90.10;;;;;;5095735;28;20024;-50
2023/06/26 05:34:48;;;;;;;6.75;5.60;;;31.20;89.00;;;;;;5113196;28;20043;-51
2023/06/26 05:37:21;;;;;;;9.63;5.65;;;31.10;88.10;;;;;;5114047;28;20064;-50
2023/06/26 05:39:47;;;;;;;7.97;6.50;;;31.20;88.20;;;;;;5114185;28;20059;-55
2023/06/26 05:42:13;;;;;;;9.57;6.60;;;31.10;88.50;;;;;;5113886;28;20176;-53
2023/06/26 05:44:38;;;;;;;10.73;6.20;;;31.10;87.70;;;;;;5113105;28;20024;-53
2023/06/26 05:47:04;;;;;;;6.55;5.93;;;31.50;86.00;;;;;;5113922;28;20041;-53
2023/06/26 05:49:29;;;;;;;5.95;5.35;;;31.50;85.80;;;;;;5095399;28;20143;-52
2023/06/26 05:51:55;;;;;;;6.75;6.15;;;31.80;85.30;;;;;;5113782;28;20554;-54
2023/06/26 05:54:21;;;;;;;6.65;5.10;;;32.20;84.60;;;;;;5112206;28;20027;-52
2023/06/26 05:56:48;;;;;;;5.88;5.38;;;32.60;81.10;;;;;;5094934;28;20225;-53
2023/06/26 05:59:15;;;;;;;6.22;5.00;;;32.60;80.90;;;;;;5113501;28;20483;-55
2023/06/26 06:01:40;;;;;;;5.90;5.28;;;32.80;80.40;;;;;;5113643;28;20429;-53
2023/06/26 06:04:06;;;;;;;6.88;5.38;;;33.00;79.80;;;;;;5094846;28;20020;-55
2023/06/26 06:06:31;;;;;;;7.95;5.25;;;33.20;79.00;;;;;;5112976;28;20110;-54
2023/06/26 06:08:57;;;;;;;17.38;5.75;;;33.00;78.30;;;;;;5113285;28;20361;-57
2023/06/26 06:11:22;;;;;;;7.07;5.57;;;32.80;78.50;;;;;;5113501;28;20031;-56
2023/06/26 06:13:48;;;;;;;6.75;5.68;;;32.80;78.70;;;;;;5112835;28;20020;-55
2023/06/26 06:16:13;;;;;;;9.52;5.60;;;33.20;77.80;;;;;;5112799;28;20072;-55
2023/06/26 06:18:39;;;;;;;6.63;5.38;;;33.30;77.00;;;;;;5094860;28;20055;-52
2023/06/26 06:21:04;;;;;;;6.70;4.97;;;33.50;77.00;;;;;;5113017;28;20088;-54
2023/06/26 06:23:30;;;;;;;7.90;5.45;;;33.50;76.70;;;;;;5112621;28;20024;-54
2023/06/26 06:25:55;;;;;;;6.85;5.90;;;33.60;76.40;;;;;;5093582;28;20382;-54
2023/06/26 06:28:21;;;;;;;8.68;5.47;;;33.80;75.80;;;;;;5111800;28;20015;-55
2023/06/26 06:30:47;;;;;;;9.07;5.50;;;33.90;75.20;;;;;;5094663;28;20055;-53
2023/06/26 06:33:15;;;;;;;5.95;5.38;;;33.60;74.80;;;;;;5112933;28;20067;-54
2023/06/26 06:35:41;;;;;;;6.78;6.18;;;33.60;74.60;;;;;;5112254;28;20050;-53
2023/06/26 06:38:06;;;;;;;6.95;6.28;;;32.90;73.90;;;;;;5112892;28;20027;-49
2023/06/26 06:40:32;;;;;;;6.63;5.75;;;32.60;74.40;;;;;;5112553;28;20028;-49
2023/06/26 06:42:57;;;;;;;7.25;6.07;;;32.60;74.80;;;;;;5112609;28;20027;-50
2023/06/26 06:45:23;;;;;;;7.07;6.38;;;32.80;74.70;;;;;;5111887;28;20016;-57
2023/06/26 06:47:48;;;;;;;8.50;6.28;;;32.80;73.60;;;;;;5112609;28;20503;-50
2023/06/26 06:50:15;;;;;;;8.38;6.50;;;32.50;74.40;;;;;;5093921;28;20061;-54
2023/06/26 06:52:42;;;;;;;6.97;6.38;;;32.30;74.50;;;;;;5112494;28;20027;-54
2023/06/26 06:55:08;;;;;;;6.80;6.10;;;32.30;75.00;;;;;;5111577;28;20031;-55
2023/06/26 06:57:39;;;;;;;8.75;6.15;;;32.70;75.20;;;;;;5112397;28;20045;-50
2023/06/26 07:00:11;;;;;;;9.65;6.15;;;33.30;75.30;;;;;;5092783;28;20050;-53
2023/06/26 07:02:41;;;;;;;7.18;6.18;;;33.80;73.20;;;;;;5112314;28;20467;-51
2023/06/26 07:05:07;;;;;;;10.40;6.43;;;33.70;73.40;;;;;;5111356;28;20051;-51
2023/06/26 07:07:34;;;;;;;10.60;6.40;;;34.00;72.70;;;;;;5112439;28;20112;-50
2023/06/26 07:10:04;;;;;;;8.05;6.05;;;34.40;72.50;;;;;;5112174;28;20039;-53
2023/06/26 07:12:29;;;;;;;6.40;5.75;;;34.60;72.00;;;;;;5112177;28;20042;-56
2023/06/26 07:14:56;;;;;;;8.73;6.70;;;34.80;71.20;;;;;;5111403;28;20027;-53
2023/06/26 07:17:22;;;;;;;12.95;6.53;;;34.80;71.30;;;;;;5111950;28;20491;-51
2023/06/26 07:19:48;;;;;;;8.73;6.15;;;34.80;71.40;;;;;;5111738;28;20032;-48
2023/06/26 07:22:14;;;;;;;8.88;6.65;;;35.00;70.80;;;;;;5112089;28;20019;-52
2023/06/26 07:24:40;;;;;;;9.10;5.47;;;35.20;70.30;;;;;;5103524;28;20019;-51
2023/06/26 07:27:05;;;;;;;9.90;5.55;;;35.00;70.40;;;;;;5110178;28;20463;-53
2023/06/26 07:29:31;;;;;;;8.50;5.95;;;35.10;72.10;;;;;;5111763;28;20031;-53
2023/06/26 07:31:56;;;;;;;6.63;4.68;;;35.50;71.20;;;;;;5111336;28;20031;-50
2023/06/26 07:34:22;;;;;;;8.25;5.95;;;36.00;70.30;;;;;;5111585;28;20031;-52
2023/06/26 07:36:47;;;;;;;7.30;5.93;;;35.90;69.00;;;;;;5109690;28;20177;-52
2023/06/26 07:39:13;;;;;;;7.53;5.70;;;36.10;69.10;;;;;;5110836;28;20040;-50
2023/06/26 07:41:38;;;;;;;7.32;5.85;;;35.90;68.40;;;;;;5111440;28;20036;-50
2023/06/26 07:44:04;;;;;;;7.43;5.25;;;35.90;68.70;;;;;;5111158;28;20031;-53
2023/06/26 07:46:29;;;;;;;8.27;5.55;;;35.90;69.10;;;;;;5111372;28;20023;-53
2023/06/26 07:48:55;;;;;;;8.63;4.97;;;36.30;68.70;;;;;;5093026;28;20023;-52
2023/06/26 07:51:20;;;;;;;5.20;4.70;;;36.30;68.50;;;;;;5111582;28;20080;-51
2023/06/26 07:53:46;;;;;;;12.35;7.28;;;36.20;68.40;;;;;;5111376;28;20024;-52
2023/06/26 07:56:12;;;;;;;7.03;5.85;;;35.70;68.80;;;;;;5110732;28;20027;-53
2023/06/26 07:58:37;;;;;;;7.38;5.15;;;35.60;69.20;;;;;;5111817;28;20023;-55
2023/06/26 08:01:03;;;;;;;9.35;5.93;;;35.40;69.20;;;;;;5111240;28;20027;-56
2023/06/26 08:03:28;;;;;;;6.72;5.60;;;35.00;69.70;;;;;;5092145;28;20035;-55
2023/06/26 08:05:54;;;;;;;9.13;6.03;;;35.10;70.10;;;;;;5092767;28;20547;-55
2023/06/26 08:08:20;;;;;;;7.65;6.03;;;35.30;68.80;;;;;;5093437;28;20025;-53
2023/06/26 08:10:45;;;;;;;8.10;5.40;;;35.70;68.50;;;;;;5110315;28;20120;-51
2023/06/26 08:13:11;;;;;;;5.68;5.10;;;35.70;68.30;;;;;;5110951;28;20028;-48
2023/06/26 08:15:36;;;;;;;13.18;6.45;;;34.60;69.60;;;;;;5109925;28;20020;-54
2023/06/26 08:18:02;;;;;;;6.13;5.15;;;33.70;71.00;;;;;;5111241;28;20027;-55
2023/06/26 08:20:28;;;;;;;6.07;5.32;;;33.00;72.70;;;;;;5093054;28;20099;-52
2023/06/26 08:22:54;;;;;;;11.10;6.30;;;32.50;73.00;;;;;;5111786;28;20018;-52
2023/06/26 08:25:20;;;;;;;7.97;5.88;;;32.30;74.10;;;;;;5110395;28;20174;-56
2023/06/26 08:27:46;;;;;;;10.57;6.28;;;32.10;74.20;;;;;;5111090;28;20028;-55
2023/06/26 08:30:11;;;;;;;11.32;5.57;;;32.20;74.50;;;;;;5110687;28;20027;-50
2023/06/26 08:32:37;;;;;;;7.07;5.80;;;32.20;74.10;;;;;;5111395;28;20038;-55
2023/06/26 08:35:04;;;;;;;5.15;4.75;;;32.30;74.80;;;;;;5110984;28;20024;-50
2023/06/26 08:37:32;;;;;;;7.50;5.20;;;32.20;73.70;;;;;;5113202;28;20035;-53
2023/06/26 08:39:59;;;;;;;7.63;5.45;;;32.30;72.10;;;;;;5114443;28;20027;-49
2023/06/26 08:42:24;;;;;;;5.75;5.18;;;32.00;72.50;;;;;;5115289;28;20360;-53
2023/06/26 08:44:50;;;;;;;6.90;4.55;;;31.80;73.30;;;;;;5113538;28;20041;-51
2023/06/26 08:47:15;;;;;;;8.27;5.38;;;31.50;73.50;;;;;;5114274;28;20031;-56
2023/06/26 08:49:58;;;;;;;4.88;4.43;;;31.20;73.30;;;;;;5114207;28;20028;-55
2023/06/26 08:52:27;;;;;;;6.90;4.60;;;31.30;73.50;;;;;;5096087;28;20031;-56
2023/06/26 08:54:58;;;;;;;4.90;4.50;;;31.40;72.10;;;;;;5113677;28;20052;-53
2023/06/26 08:57:25;;;;;;;4.47;4.07;;;31.60;71.70;;;;;;5114449;28;20106;-56
2023/06/26 08:59:52;;;;;;;5.20;4.70;;;31.80;71.50;;;;;;5114810;28;20074;-52
2023/06/26 09:02:17;;;;;;;5.22;4.70;;;31.50;71.60;;;;;;5114498;28;20038;-55
2023/06/26 09:04:43;;;;;;;8.75;4.90;;;31.00;72.60;;;;;;5112909;28;20024;-52
2023/06/26 09:07:09;;;;;;;5.93;4.47;;;30.80;72.90;;;;;;5114776;28;20049;-51
2023/06/26 09:09:35;;;;;;;6.13;4.97;;;30.90;73.10;;;;;;5095815;28;20040;-54
2023/06/26 09:12:03;;;;;;;5.10;4.63;;;31.00;73.60;;;;;;5114429;28;20023;-49
2023/06/26 09:14:29;;;;;;;5.07;4.57;;;31.50;74.00;;;;;;5114133;28;20534;-49
2023/06/26 09:16:55;;;;;;;6.43;4.68;;;31.90;71.90;;;;;;5113864;28;20061;-52
2023/06/26 09:19:20;;;;;;;5.15;4.72;;;32.10;72.30;;;;;;5114034;28;20519;-51
2023/06/26 09:21:50;;;;;;;5.15;4.72;;;32.20;72.40;;;;;;5112799;28;20028;-51
2023/06/26 09:24:16;;;;;;;9.88;4.75;;;32.10;72.30;;;;;;5113825;28;20394;-50
2023/06/26 09:26:42;;;;;;;4.88;4.47;;;31.90;72.50;;;;;;5113867;28;20394;-53
2023/06/26 09:29:09;;;;;;;5.32;4.55;;;31.90;72.30;;;;;;5114123;28;20019;-51
2023/06/26 09:31:37;;;;;;;4.72;4.32;;;31.80;73.50;;;;;;5113860;28;20099;-53
2023/06/26 09:34:03;;;;;;;4.68;4.07;;;31.80;73.20;;;;;;5113638;28;20387;-51
2023/06/26 09:36:33;;;;;;;9.43;4.45;;;31.70;73.00;;;;;;5113616;28;20043;-52
2023/06/26 09:39:03;;;;;;;5.00;4.50;;;31.70;73.50;;;;;;5112208;28;20111;-48
2023/06/26 09:41:30;;;;;;;6.63;4.60;;;31.70;74.00;;;;;;5113923;28;20023;-49
2023/06/26 09:44:00;;;;;;;5.22;4.18;;;31.40;73.80;;;;;;5113430;28;20024;-52
2023/06/26 09:46:27;;;;;;;5.43;4.82;;;31.10;74.60;;;;;;5113042;28;20024;-53
2023/06/26 09:49:13;;;;;;;4.95;4.55;;;30.60;75.60;;;;;;5113094;28;20023;-51
2023/06/26 09:51:40;;;;;;;4.68;4.28;;;30.30;76.20;;;;;;5112129;28;20031;-54
2023/06/26 09:54:07;;;;;;;10.52;4.25;;;30.30;76.80;;;;;;5112100;28;20027;-52
2023/06/26 09:56:33;;;;;;;5.00;4.60;;;30.30;76.50;;;;;;5083884;28;20023;-50
2023/06/26 09:59:04;;;;;;;8.07;5.68;;;30.10;76.70;;;;;;5124246;27;20015;-53
2023/06/26 10:01:31;;;;;;;7.28;5.95;;;30.00;78.20;;;;;;5128861;27;20051;-53
2023/06/26 10:03:57;;;;;;;5.22;4.78;;;29.80;77.90;;;;;;5113521;28;20043;-47
2023/06/26 10:06:30;;;;;;;4.60;4.20;;;29.80;78.90;;;;;;5094983;28;20064;-48
2023/06/26 10:08:58;;;;;;;5.07;4.15;;;29.70;78.70;;;;;;5111438;28;20039;-48
2023/06/26 10:11:29;;;;;;;6.53;4.38;;;29.60;79.30;;;;;;5103397;28;20028;-50
2023/06/26 10:13:57;;;;;;;5.03;4.53;;;29.60;79.30;;;;;;5092392;28;20073;-50
2023/06/26 10:16:26;;;;;;;7.57;4.85;;;29.40;79.40;;;;;;5110034;28;20382;-47
2023/06/26 10:18:58;;;;;;;6.80;4.70;;;29.40;79.70;;;;;;5112896;28;20016;-51
2023/06/26 10:21:27;;;;;;;5.15;4.53;;;29.30;79.90;;;;;;5113455;28;20035;-50
2023/06/26 10:23:54;;;;;;;7.63;4.50;;;29.30;80.30;;;;;;5112550;28;20437;-49
2023/06/26 10:26:22;;;;;;;6.90;4.97;;;29.30;80.40;;;;;;5094366;28;20518;-48
2023/06/26 10:28:51;;;;;;;5.38;4.85;;;29.10;80.90;;;;;;5093002;28;20024;-48
2023/06/26 10:31:22;;;;;;;6.15;4.93;;;29.00;80.70;;;;;;5092431;28;20016;-51
2023/06/26 10:33:49;;;;;;;4.82;4.43;;;29.10;80.90;;;;;;5092030;28;20070;-53
2023/06/26 10:36:18;;;;;;;5.60;4.35;;;29.20;81.10;;;;;;5092113;28;20024;-53
2023/06/26 10:38:55;;;;;;;5.43;4.93;;;29.40;80.40;;;;;;5092285;28;20024;-51
2023/06/26 10:41:25;;;;;;;5.35;4.85;;;29.60;80.10;;;;;;5074143;28;20028;-54
2023/06/26 10:43:51;;;;;;;7.50;4.40;;;29.70;79.60;;;;;;5091735;28;20421;-54
2023/06/26 10:46:19;;;;;;;4.85;4.10;;;29.60;79.90;;;;;;5092456;28;20056;-52
2023/06/26 10:48:56;;;;;;;5.45;4.32;;;29.70;80.00;;;;;;5093746;28;20034;-54
2023/06/26 10:51:22;;;;;;;5.82;4.97;;;29.90;80.40;;;;;;5092575;28;20436;-50
2023/06/26 10:53:57;;;;;;;5.15;4.65;;;30.00;80.00;;;;;;5091934;28;20524;-48
2023/06/26 10:56:59;;;;;;;5.15;4.65;;;30.00;79.30;;;;;;5091817;28;20028;-54
2023/06/26 10:59:26;;;;;;;6.60;5.38;;;30.00;79.70;;;;;;5091134;28;20074;-49
2023/06/26 11:01:57;;;;;;;5.90;4.20;;;30.00;79.50;;;;;;5092167;28;20025;-49
2023/06/26 11:04:59;;;;;;;6.28;4.53;;;30.00;79.80;;;;;;5103349;28;20028;-49
2023/06/26 11:07:26;;;;;;;4.50;4.10;;;29.80;78.80;;;;;;5058948;28;20043;-49
2023/06/26 11:09:57;;;;;;;5.53;4.60;;;29.60;79.40;;;;;;5112178;28;20110;-50
2023/06/26 11:12:42;;;;;;;4.82;4.43;;;29.70;79.50;;;;;;5112294;28;20027;-57
2023/06/26 11:15:12;;;;;;;4.93;4.32;;;29.70;79.50;;;;;;5111899;28;20024;-58
2023/06/26 11:17:39;;;;;;;5.25;4.50;;;29.70;79.40;;;;;;5112646;28;20028;-55
2023/06/26 11:20:13;;;;;;;6.38;4.15;;;29.90;79.50;;;;;;5112174;28;20076;-58
2023/06/26 11:22:40;;;;;;;4.85;4.32;;;29.90;79.00;;;;;;5111930;28;20028;-57
2023/06/26 11:25:07;;;;;;;9.23;4.32;;;29.90;79.10;;;;;;5104862;28;20483;-59
2023/06/26 11:27:39;;;;;;;6.93;4.30;;;30.10;79.50;;;;;;5111504;28;20032;-51
2023/06/26 11:30:06;;;;;;;11.23;7.22;;;30.20;77.60;;;;;;5111481;28;20028;-50
2023/06/26 11:32:35;;;;;;;9.65;5.03;;;30.20;77.60;;;;;;5111236;28;20487;-52
2023/06/26 11:35:00;;;;;;;5.13;4.57;;;30.30;77.50;;;;;;5110997;28;20106;-53
2023/06/26 11:37:26;;;;;;;7.03;4.88;;;30.20;75.70;;;;;;5111485;28;20509;-54
2023/06/26 11:39:51;;;;;;;9.45;4.90;;;30.00;75.20;;;;;;5111745;28;20028;-53
2023/06/26 11:42:19;;;;;;;5.72;5.07;;;30.00;74.20;;;;;;5111390;28;20024;-52
2023/06/26 11:44:44;;;;;;;5.90;5.30;;;30.00;73.90;;;;;;5107501;28;20036;-54
2023/06/26 11:47:20;;;;;;;6.00;4.72;;;29.90;74.20;;;;;;5110590;28;20019;-53
2023/06/26 11:49:48;;;;;;;7.05;5.68;;;29.90;74.00;;;;;;5110221;28;20433;-55
2023/06/26 11:52:15;;;;;;;7.10;5.95;;;29.90;74.70;;;;;;5111686;28;20106;-55
2023/06/26 11:54:41;;;;;;;9.55;5.22;;;29.90;73.70;;;;;;5109839;28;20384;-53
2023/06/26 11:57:07;;;;;;;9.52;5.75;;;29.80;71.90;;;;;;5090423;28;20547;-55
2023/06/26 11:59:36;;;;;;;6.80;6.15;;;29.70;71.80;;;;;;5104870;28;20058;-53
2023/06/26 12:02:06;;;;;;;7.25;6.30;;;29.60;71.70;;;;;;5110820;28;20037;-47
2023/06/26 12:04:33;;;;;;;10.95;6.50;;;29.60;71.80;;;;;;5091627;28;20020;-53
2023/06/26 12:06:59;;;;;;;10.75;7.13;;;29.60;71.80;;;;;;5110592;28;20023;-52
2023/06/26 12:09:26;;;;;;;8.18;7.38;;;29.60;72.00;;;;;;5110212;28;20642;-51
2023/06/26 12:11:54;;;;;;;7.40;6.57;;;29.70;71.40;;;;;;5113216;28;20044;-55
2023/06/26 12:14:21;;;;;;;8.57;6.88;;;29.70;71.50;;;;;;5114290;28;20020;-53
2023/06/26 12:16:47;;;;;;;9.65;7.35;;;29.70;72.40;;;;;;5113340;28;20015;-55
2023/06/26 12:19:13;;;;;;;13.10;7.75;;;29.60;71.10;;;;;;5110216;28;20031;-52
2023/06/26 12:21:41;;;;;;;8.52;7.70;;;29.50;71.40;;;;;;5115217;28;20491;-51
2023/06/26 12:24:15;;;;;;;9.70;6.82;;;29.50;71.50;;;;;;5115094;28;20394;-55
2023/06/26 12:26:45;;;;;;;11.07;7.75;;;29.50;72.30;;;;;;5097728;28;20476;-49
2023/06/26 12:29:18;;;;;;;8.18;6.45;;;29.60;73.20;;;;;;5094892;28;20049;-50
2023/06/26 12:31:53;;;;;;;7.38;6.68;;;29.60;73.10;;;;;;5095051;28;20506;-49
2023/06/26 12:34:21;;;;;;;7.60;6.90;;;29.80;72.90;;;;;;5094472;28;20395;-49
2023/06/26 12:36:50;;;;;;;9.63;7.50;;;29.90;71.60;;;;;;5080658;27;20027;-47
2023/06/26 12:39:18;;;;;;;10.48;7.03;;;29.80;71.00;;;;;;5113162;27;20076;-53
2023/06/26 12:41:45;;;;;;;7.25;5.80;;;29.70;71.30;;;;;;5129283;27;20019;-54
2023/06/26 12:44:22;;;;;;;7.60;5.00;;;29.70;70.90;;;;;;5113733;28;20152;-56
2023/06/26 12:46:49;;;;;;;6.13;5.00;;;29.80;70.10;;;;;;5114390;28;20024;-56